sensor_id;sensor_type;location;lat;lon;timestamp;P1;durP1;ratioP1;P2;durP2;ratioP2
76980;SDS011;65914;51.618;5.446;2022-12-29T07:03:46;1.95;;;0.40;;
76980;SDS011;65914;51.618;5.446;2022-12-29T07:06:11;0.65;;;0.40;;
76980;SDS011;65914;51.618;5.446;2022-12-29T07:08:37;0.68;;;0.57;;
76980;SDS011;65914;51.618;5.446;2022-12-29T07:11:03;1.17;;;0.75;;
76980;SDS011;65914;51.618;5.446;2022-12-29T07:13:29;1.25;;;1.15;;
76980;SDS011;65914;51.618;5.446;2022-12-29T07:15:54;2.08;;;0.80;;
76980;SDS011;65914;51.618;5.446;2022-12-29T07:18:19;1.55;;;0.88;;
76980;SDS011;65914;51.618;5.446;2022-12-29T07:20:45;1.85;;;0.90;;
76980;SDS011;65914;51.618;5.446;2022-12-29T07:23:10;1.95;;;0.80;;
76980;SDS011;65914;51.618;5.446;2022-12-29T07:25:35;0.88;;;0.57;;
76980;SDS011;65914;51.618;5.446;2022-12-29T07:28:01;0.60;;;0.60;;
76980;SDS011;65914;51.618;5.446;2022-12-29T07:30:27;1.15;;;0.90;;
76980;SDS011;65914;51.618;5.446;2022-12-29T07:32:52;1.17;;;0.90;;
76980;SDS011;65914;51.618;5.446;2022-12-29T07:35:18;5.35;;;0.98;;
76980;SDS011;65914;51.618;5.446;2022-12-29T07:37:43;0.68;;;0.55;;
76980;SDS011;65914;51.618;5.446;2022-12-29T07:40:09;1.60;;;0.90;;
76980;SDS011;65914;51.618;5.446;2022-12-29T07:42:35;1.13;;;0.40;;
76980;SDS011;65914;51.618;5.446;2022-12-29T07:45:00;0.70;;;0.55;;
76980;SDS011;65914;51.618;5.446;2022-12-29T07:47:26;2.05;;;1.27;;
76980;SDS011;65914;51.618;5.446;2022-12-29T07:49:51;0.85;;;0.80;;
76980;SDS011;65914;51.618;5.446;2022-12-29T07:52:17;0.65;;;0.50;;
76980;SDS011;65914;51.618;5.446;2022-12-29T07:54:42;10.38;;;0.90;;
76980;SDS011;65914;51.618;5.446;2022-12-29T07:57:07;0.60;;;0.60;;
76980;SDS011;65914;51.618;5.446;2022-12-29T07:59:33;2.05;;;1.00;;
76980;SDS011;65914;51.618;5.446;2022-12-29T08:01:58;1.20;;;1.05;;
76980;SDS011;65914;51.618;5.446;2022-12-29T08:04:24;0.88;;;0.70;;
76980;SDS011;65914;51.618;5.446;2022-12-29T08:06:49;1.95;;;0.80;;
76980;SDS011;65914;51.618;5.446;2022-12-29T08:09:14;3.97;;;1.15;;
76980;SDS011;65914;51.618;5.446;2022-12-29T08:11:40;3.55;;;0.77;;
76980;SDS011;65914;51.618;5.446;2022-12-29T08:14:06;3.42;;;1.65;;
76980;SDS011;65914;51.618;5.446;2022-12-29T08:16:31;3.35;;;0.60;;
76980;SDS011;65914;51.618;5.446;2022-12-29T08:18:57;3.67;;;0.98;;
76980;SDS011;65914;51.618;5.446;2022-12-29T08:21:23;2.28;;;1.10;;
76980;SDS011;65914;51.618;5.446;2022-12-29T08:23:49;0.98;;;0.95;;
76980;SDS011;65914;51.618;5.446;2022-12-29T08:26:14;1.13;;;0.32;;
76980;SDS011;65914;51.618;5.446;2022-12-29T08:28:40;2.50;;;0.85;;
76980;SDS011;65914;51.618;5.446;2022-12-29T08:31:05;1.35;;;0.77;;
76980;SDS011;65914;51.618;5.446;2022-12-29T08:33:31;0.98;;;0.85;;
76980;SDS011;65914;51.618;5.446;2022-12-29T08:36:03;3.17;;;1.30;;
76980;SDS011;65914;51.618;5.446;2022-12-29T08:38:30;1.45;;;0.82;;
76980;SDS011;65914;51.618;5.446;2022-12-29T08:40:57;0.95;;;0.93;;
76980;SDS011;65914;51.618;5.446;2022-12-29T08:43:23;1.48;;;0.60;;
76980;SDS011;65914;51.618;5.446;2022-12-29T08:45:49;1.73;;;0.50;;
76980;SDS011;65914;51.618;5.446;2022-12-29T08:48:14;1.08;;;0.63;;
76980;SDS011;65914;51.618;5.446;2022-12-29T08:50:43;1.48;;;0.90;;
76980;SDS011;65914;51.618;5.446;2022-12-29T08:53:09;2.92;;;1.35;;
76980;SDS011;65914;51.618;5.446;2022-12-29T08:55:34;1.70;;;0.88;;
76980;SDS011;65914;51.618;5.446;2022-12-29T08:58:00;0.82;;;0.82;;
76980;SDS011;65914;51.618;5.446;2022-12-29T09:00:25;0.70;;;0.65;;
76980;SDS011;65914;51.618;5.446;2022-12-29T09:02:51;5.90;;;1.67;;
76980;SDS011;65914;51.618;5.446;2022-12-29T09:05:16;3.33;;;1.05;;
76980;SDS011;65914;51.618;5.446;2022-12-29T09:07:41;1.23;;;0.73;;
76980;SDS011;65914;51.618;5.446;2022-12-29T09:10:07;1.20;;;0.82;;
76980;SDS011;65914;51.618;5.446;2022-12-29T09:12:34;3.83;;;0.77;;
76980;SDS011;65914;51.618;5.446;2022-12-29T09:15:12;0.75;;;0.47;;
76980;SDS011;65914;51.618;5.446;2022-12-29T09:18:14;2.22;;;1.08;;
76980;SDS011;65914;51.618;5.446;2022-12-29T09:21:01;1.70;;;1.08;;
76980;SDS011;65914;51.618;5.446;2022-12-29T09:23:31;1.65;;;0.98;;
76980;SDS011;65914;51.618;5.446;2022-12-29T09:25:57;2.85;;;0.98;;
76980;SDS011;65914;51.618;5.446;2022-12-29T09:28:23;2.75;;;1.58;;
76980;SDS011;65914;51.618;5.446;2022-12-29T09:30:49;2.00;;;1.17;;
76980;SDS011;65914;51.618;5.446;2022-12-29T09:33:15;4.30;;;1.50;;
76980;SDS011;65914;51.618;5.446;2022-12-29T09:35:41;7.32;;;1.75;;
76980;SDS011;65914;51.618;5.446;2022-12-29T09:38:08;3.60;;;0.82;;
76980;SDS011;65914;51.618;5.446;2022-12-29T09:40:33;1.60;;;0.80;;
76980;SDS011;65914;51.618;5.446;2022-12-29T09:45:47;2.85;;;1.77;;
76980;SDS011;65914;51.618;5.446;2022-12-29T09:48:50;0.75;;;0.75;;
76980;SDS011;65914;51.618;5.446;2022-12-29T09:51:13;0.63;;;0.63;;
76980;SDS011;65914;51.618;5.446;2022-12-29T09:59:17;3.10;;;0.95;;
76980;SDS011;65914;51.618;5.446;2022-12-29T10:01:58;4.53;;;1.30;;
76980;SDS011;65914;51.618;5.446;2022-12-29T10:04:37;1.13;;;1.05;;
76980;SDS011;65914;51.618;5.446;2022-12-29T10:07:16;2.83;;;1.48;;
76980;SDS011;65914;51.618;5.446;2022-12-29T10:09:51;9.23;;;1.27;;
76980;SDS011;65914;51.618;5.446;2022-12-29T10:12:34;3.75;;;1.23;;
76980;SDS011;65914;51.618;5.446;2022-12-29T10:23:54;2.75;;;0.80;;
76980;SDS011;65914;51.618;5.446;2022-12-29T10:26:26;3.67;;;0.83;;
76980;SDS011;65914;51.618;5.446;2022-12-29T10:29:04;1.75;;;1.55;;
76980;SDS011;65914;51.618;5.446;2022-12-29T10:31:50;2.92;;;0.95;;
76980;SDS011;65914;51.618;5.446;2022-12-29T10:34:29;0.73;;;0.57;;
76980;SDS011;65914;51.618;5.446;2022-12-29T10:39:30;2.08;;;0.95;;
76980;SDS011;65914;51.618;5.446;2022-12-29T10:44:30;0.52;;;0.50;;
76980;SDS011;65914;51.618;5.446;2022-12-29T10:47:00;1.65;;;0.80;;
76980;SDS011;65914;51.618;5.446;2022-12-29T10:49:30;2.20;;;1.48;;
76980;SDS011;65914;51.618;5.446;2022-12-29T10:51:57;2.10;;;0.97;;
76980;SDS011;65914;51.618;5.446;2022-12-29T10:54:35;2.30;;;0.90;;
76980;SDS011;65914;51.618;5.446;2022-12-29T10:59:41;2.78;;;1.55;;
76980;SDS011;65914;51.618;5.446;2022-12-29T11:07:21;2.80;;;1.58;;
76980;SDS011;65914;51.618;5.446;2022-12-29T11:09:47;4.45;;;1.45;;
76980;SDS011;65914;51.618;5.446;2022-12-29T11:14:45;3.38;;;1.42;;
76980;SDS011;65914;51.618;5.446;2022-12-29T11:17:14;1.13;;;0.73;;
76980;SDS011;65914;51.618;5.446;2022-12-29T11:19:41;2.22;;;0.95;;
76980;SDS011;65914;51.618;5.446;2022-12-29T11:22:20;14.18;;;1.80;;
76980;SDS011;65914;51.618;5.446;2022-12-29T11:24:49;1.35;;;1.27;;
76980;SDS011;65914;51.618;5.446;2022-12-29T11:27:17;1.15;;;0.90;;
76980;SDS011;65914;51.618;5.446;2022-12-29T11:29:50;2.53;;;0.95;;
76980;SDS011;65914;51.618;5.446;2022-12-29T11:34:47;4.20;;;1.25;;
76980;SDS011;65914;51.618;5.446;2022-12-29T11:37:13;3.60;;;1.00;;
76980;SDS011;65914;51.618;5.446;2022-12-29T11:42:21;1.52;;;1.05;;
76980;SDS011;65914;51.618;5.446;2022-12-29T11:44:49;3.92;;;1.23;;
76980;SDS011;65914;51.618;5.446;2022-12-29T11:47:34;1.20;;;1.10;;
76980;SDS011;65914;51.618;5.446;2022-12-29T11:50:02;1.88;;;0.93;;
76980;SDS011;65914;51.618;5.446;2022-12-29T11:52:32;0.98;;;0.85;;
76980;SDS011;65914;51.618;5.446;2022-12-29T11:55:04;1.15;;;1.05;;
76980;SDS011;65914;51.618;5.446;2022-12-29T11:57:41;1.92;;;1.38;;
76980;SDS011;65914;51.618;5.446;2022-12-29T12:00:18;1.45;;;1.35;;
76980;SDS011;65914;51.618;5.446;2022-12-29T12:07:46;4.72;;;2.13;;
76980;SDS011;65914;51.618;5.446;2022-12-29T12:11:03;5.03;;;1.83;;
76980;SDS011;65914;51.618;5.446;2022-12-29T12:13:29;3.97;;;1.40;;
76980;SDS011;65914;51.618;5.446;2022-12-29T12:16:15;3.22;;;1.50;;
76980;SDS011;65914;51.618;5.446;2022-12-29T12:18:48;4.20;;;1.42;;
76980;SDS011;65914;51.618;5.446;2022-12-29T12:21:29;4.50;;;1.58;;
76980;SDS011;65914;51.618;5.446;2022-12-29T12:24:47;2.28;;;1.77;;
76980;SDS011;65914;51.618;5.446;2022-12-29T12:29:46;3.30;;;1.43;;
76980;SDS011;65914;51.618;5.446;2022-12-29T12:43:35;2.28;;;1.17;;
76980;SDS011;65914;51.618;5.446;2022-12-29T12:49:27;4.45;;;1.60;;
76980;SDS011;65914;51.618;5.446;2022-12-29T12:54:58;2.58;;;1.60;;
76980;SDS011;65914;51.618;5.446;2022-12-29T13:00:20;1.88;;;1.50;;
76980;SDS011;65914;51.618;5.446;2022-12-29T13:19:14;1.95;;;1.35;;
76980;SDS011;65914;51.618;5.446;2022-12-29T13:24:40;5.65;;;1.60;;
76980;SDS011;65914;51.618;5.446;2022-12-29T13:30:10;1.85;;;1.75;;
76980;SDS011;65914;51.618;5.446;2022-12-29T13:41:17;2.00;;;1.33;;
76980;SDS011;65914;51.618;5.446;2022-12-29T13:43:46;4.65;;;1.35;;
76980;SDS011;65914;51.618;5.446;2022-12-29T13:46:16;3.50;;;1.50;;
76980;SDS011;65914;51.618;5.446;2022-12-29T13:48:49;2.15;;;1.33;;
76980;SDS011;65914;51.618;5.446;2022-12-29T13:51:27;1.30;;;0.95;;
76980;SDS011;65914;51.618;5.446;2022-12-29T13:59:50;3.08;;;1.23;;
76980;SDS011;65914;51.618;5.446;2022-12-29T14:02:26;1.30;;;1.08;;
76980;SDS011;65914;51.618;5.446;2022-12-29T14:05:03;3.20;;;1.35;;
76980;SDS011;65914;51.618;5.446;2022-12-29T14:07:49;1.55;;;1.08;;
76980;SDS011;65914;51.618;5.446;2022-12-29T14:10:30;0.87;;;0.80;;
76980;SDS011;65914;51.618;5.446;2022-12-29T14:15:42;1.27;;;1.15;;
76980;SDS011;65914;51.618;5.446;2022-12-29T14:18:16;2.58;;;1.45;;
76980;SDS011;65914;51.618;5.446;2022-12-29T14:20:51;1.92;;;1.52;;
76980;SDS011;65914;51.618;5.446;2022-12-29T14:29:03;1.27;;;1.20;;
76980;SDS011;65914;51.618;5.446;2022-12-29T14:31:40;2.90;;;1.08;;
76980;SDS011;65914;51.618;5.446;2022-12-29T14:44:51;3.45;;;1.90;;
76980;SDS011;65914;51.618;5.446;2022-12-29T14:49:52;2.05;;;1.45;;
76980;SDS011;65914;51.618;5.446;2022-12-29T14:52:25;6.47;;;5.22;;
76980;SDS011;65914;51.618;5.446;2022-12-29T14:55:28;16.60;;;8.85;;
76980;SDS011;65914;51.618;5.446;2022-12-29T14:57:57;9.52;;;4.72;;
76980;SDS011;65914;51.618;5.446;2022-12-29T15:00:27;4.82;;;3.70;;
76980;SDS011;65914;51.618;5.446;2022-12-29T15:05:33;4.63;;;3.13;;
76980;SDS011;65914;51.618;5.446;2022-12-29T15:08:02;5.18;;;3.78;;
76980;SDS011;65914;51.618;5.446;2022-12-29T15:10:35;3.42;;;2.67;;
76980;SDS011;65914;51.618;5.446;2022-12-29T15:13:22;4.07;;;3.13;;
76980;SDS011;65914;51.618;5.446;2022-12-29T15:15:50;2.55;;;2.33;;
76980;SDS011;65914;51.618;5.446;2022-12-29T15:18:25;4.87;;;2.57;;
76980;SDS011;65914;51.618;5.446;2022-12-29T15:21:03;3.45;;;2.60;;
76980;SDS011;65914;51.618;5.446;2022-12-29T15:23:30;4.40;;;2.65;;
76980;SDS011;65914;51.618;5.446;2022-12-29T15:28:26;5.65;;;3.05;;
76980;SDS011;65914;51.618;5.446;2022-12-29T15:30:54;4.70;;;3.00;;
76980;SDS011;65914;51.618;5.446;2022-12-29T15:33:22;5.68;;;3.25;;
76980;SDS011;65914;51.618;5.446;2022-12-29T15:35:51;3.95;;;2.33;;
76980;SDS011;65914;51.618;5.446;2022-12-29T15:38:22;3.67;;;1.77;;
76980;SDS011;65914;51.618;5.446;2022-12-29T15:40:52;4.55;;;2.22;;
76980;SDS011;65914;51.618;5.446;2022-12-29T15:45:55;3.67;;;1.63;;
76980;SDS011;65914;51.618;5.446;2022-12-29T15:48:22;4.20;;;2.17;;
76980;SDS011;65914;51.618;5.446;2022-12-29T15:50:49;2.45;;;2.25;;
76980;SDS011;65914;51.618;5.446;2022-12-29T15:53:18;1.92;;;1.80;;
76980;SDS011;65914;51.618;5.446;2022-12-29T15:55:49;6.95;;;5.03;;
76980;SDS011;65914;51.618;5.446;2022-12-29T15:58:20;22.90;;;12.98;;
76980;SDS011;65914;51.618;5.446;2022-12-29T16:00:49;38.00;;;29.02;;
76980;SDS011;65914;51.618;5.446;2022-12-29T16:03:17;17.13;;;10.27;;
76980;SDS011;65914;51.618;5.446;2022-12-29T16:05:49;11.70;;;7.82;;
76980;SDS011;65914;51.618;5.446;2022-12-29T16:08:36;7.00;;;6.30;;
76980;SDS011;65914;51.618;5.446;2022-12-29T16:11:47;5.95;;;5.38;;
76980;SDS011;65914;51.618;5.446;2022-12-29T16:13:56;7.43;;;5.20;;
76980;SDS011;65914;51.618;5.446;2022-12-29T16:16:31;6.80;;;4.43;;
76980;SDS011;65914;51.618;5.446;2022-12-29T16:19:06;6.10;;;4.22;;
76980;SDS011;65914;51.618;5.446;2022-12-29T16:21:38;5.68;;;3.72;;
76980;SDS011;65914;51.618;5.446;2022-12-29T16:24:07;4.47;;;3.60;;
76980;SDS011;65914;51.618;5.446;2022-12-29T16:26:38;4.90;;;3.67;;
76980;SDS011;65914;51.618;5.446;2022-12-29T16:29:05;3.38;;;3.08;;
76980;SDS011;65914;51.618;5.446;2022-12-29T16:34:21;5.53;;;2.85;;
76980;SDS011;65914;51.618;5.446;2022-12-29T16:36:53;4.75;;;3.00;;
76980;SDS011;65914;51.618;5.446;2022-12-29T16:39:31;6.65;;;3.85;;
76980;SDS011;65914;51.618;5.446;2022-12-29T16:41:59;16.45;;;3.33;;
76980;SDS011;65914;51.618;5.446;2022-12-29T16:44:29;5.43;;;2.90;;
76980;SDS011;65914;51.618;5.446;2022-12-29T16:49:26;4.30;;;1.85;;
76980;SDS011;65914;51.618;5.446;2022-12-29T16:54:34;3.45;;;2.17;;
76980;SDS011;65914;51.618;5.446;2022-12-29T16:57:41;5.68;;;2.30;;
76980;SDS011;65914;51.618;5.446;2022-12-29T17:00:20;3.28;;;1.90;;
76980;SDS011;65914;51.618;5.446;2022-12-29T17:02:50;2.13;;;1.60;;
76980;SDS011;65914;51.618;5.446;2022-12-29T17:05:25;6.38;;;3.05;;
76980;SDS011;65914;51.618;5.446;2022-12-29T17:07:50;1.90;;;1.55;;
76980;SDS011;65914;51.618;5.446;2022-12-29T17:10:17;3.90;;;1.80;;
76980;SDS011;65914;51.618;5.446;2022-12-29T17:12:43;1.95;;;1.83;;
76980;SDS011;65914;51.618;5.446;2022-12-29T17:15:21;2.47;;;1.70;;
76980;SDS011;65914;51.618;5.446;2022-12-29T17:18:00;3.00;;;2.17;;
76980;SDS011;65914;51.618;5.446;2022-12-29T17:20:26;1.73;;;1.60;;
76980;SDS011;65914;51.618;5.446;2022-12-29T17:26:14;4.40;;;2.13;;
76980;SDS011;65914;51.618;5.446;2022-12-29T17:28:40;3.10;;;2.03;;
76980;SDS011;65914;51.618;5.446;2022-12-29T17:31:06;2.67;;;2.13;;
76980;SDS011;65914;51.618;5.446;2022-12-29T17:50:14;2.25;;;2.03;;
76980;SDS011;65914;51.618;5.446;2022-12-29T18:03:20;6.90;;;1.90;;
76980;SDS011;65914;51.618;5.446;2022-12-29T18:06:07;4.63;;;2.53;;
76980;SDS011;65914;51.618;5.446;2022-12-29T18:09:01;3.13;;;2.42;;
76980;SDS011;65914;51.618;5.446;2022-12-29T18:19:13;8.13;;;2.60;;
76980;SDS011;65914;51.618;5.446;2022-12-29T18:25:09;2.75;;;2.40;;
76980;SDS011;65914;51.618;5.446;2022-12-29T18:52:11;2.75;;;1.98;;
76980;SDS011;65914;51.618;5.446;2022-12-29T19:27:56;6.70;;;2.58;;
76980;SDS011;65914;51.618;5.446;2022-12-29T19:37:02;4.43;;;2.45;;
76980;SDS011;65914;51.618;5.446;2022-12-29T19:40:50;3.92;;;2.40;;
76980;SDS011;65914;51.618;5.446;2022-12-29T19:43:16;8.43;;;2.83;;
76980;SDS011;65914;51.618;5.446;2022-12-29T19:45:43;5.57;;;2.88;;
76980;SDS011;65914;51.618;5.446;2022-12-29T19:48:16;11.55;;;2.30;;
76980;SDS011;65914;51.618;5.446;2022-12-29T19:50:43;2.42;;;2.10;;
76980;SDS011;65914;51.618;5.446;2022-12-29T19:53:10;3.40;;;2.78;;
76980;SDS011;65914;51.618;5.446;2022-12-29T19:55:35;2.30;;;2.10;;
76980;SDS011;65914;51.618;5.446;2022-12-29T19:58:01;2.47;;;2.15;;
76980;SDS011;65914;51.618;5.446;2022-12-29T20:00:26;5.35;;;1.98;;
76980;SDS011;65914;51.618;5.446;2022-12-29T20:02:51;12.07;;;3.45;;
76980;SDS011;65914;51.618;5.446;2022-12-29T20:05:17;5.15;;;2.80;;
76980;SDS011;65914;51.618;5.446;2022-12-29T20:07:43;12.50;;;2.83;;
76980;SDS011;65914;51.618;5.446;2022-12-29T20:10:08;2.53;;;2.15;;
76980;SDS011;65914;51.618;5.446;2022-12-29T20:12:34;7.22;;;3.00;;
76980;SDS011;65914;51.618;5.446;2022-12-29T20:15:01;7.75;;;3.00;;
76980;SDS011;65914;51.618;5.446;2022-12-29T20:17:27;4.00;;;1.92;;
76980;SDS011;65914;51.618;5.446;2022-12-29T20:19:53;2.25;;;2.05;;
76980;SDS011;65914;51.618;5.446;2022-12-29T20:22:18;4.35;;;2.75;;
76980;SDS011;65914;51.618;5.446;2022-12-29T20:24:44;4.07;;;3.17;;
76980;SDS011;65914;51.618;5.446;2022-12-29T20:27:10;2.20;;;2.03;;
76980;SDS011;65914;51.618;5.446;2022-12-29T20:29:38;3.03;;;2.35;;
76980;SDS011;65914;51.618;5.446;2022-12-29T20:32:14;4.93;;;2.40;;
76980;SDS011;65914;51.618;5.446;2022-12-29T20:34:43;6.10;;;2.17;;
76980;SDS011;65914;51.618;5.446;2022-12-29T20:37:10;19.63;;;3.05;;
76980;SDS011;65914;51.618;5.446;2022-12-29T20:39:35;13.18;;;3.10;;
76980;SDS011;65914;51.618;5.446;2022-12-29T20:42:02;3.30;;;2.17;;
76980;SDS011;65914;51.618;5.446;2022-12-29T20:44:29;17.70;;;2.70;;
76980;SDS011;65914;51.618;5.446;2022-12-29T20:46:56;7.72;;;2.88;;
76980;SDS011;65914;51.618;5.446;2022-12-29T20:49:22;7.53;;;2.55;;
76980;SDS011;65914;51.618;5.446;2022-12-29T20:51:48;3.83;;;2.00;;
76980;SDS011;65914;51.618;5.446;2022-12-29T20:54:13;3.78;;;2.45;;
76980;SDS011;65914;51.618;5.446;2022-12-29T20:56:39;2.72;;;2.53;;
76980;SDS011;65914;51.618;5.446;2022-12-29T20:59:05;9.70;;;3.45;;
76980;SDS011;65914;51.618;5.446;2022-12-29T21:01:30;3.20;;;2.55;;
76980;SDS011;65914;51.618;5.446;2022-12-29T21:03:56;3.65;;;2.08;;
76980;SDS011;65914;51.618;5.446;2022-12-29T21:06:22;6.25;;;2.80;;
76980;SDS011;65914;51.618;5.446;2022-12-29T21:08:48;3.08;;;2.80;;
76980;SDS011;65914;51.618;5.446;2022-12-29T21:11:15;2.45;;;2.17;;
76980;SDS011;65914;51.618;5.446;2022-12-29T21:13:42;3.70;;;2.07;;
76980;SDS011;65914;51.618;5.446;2022-12-29T21:16:08;3.67;;;2.40;;
76980;SDS011;65914;51.618;5.446;2022-12-29T21:21:01;2.63;;;2.20;;
76980;SDS011;65914;51.618;5.446;2022-12-29T21:23:29;4.90;;;2.60;;
76980;SDS011;65914;51.618;5.446;2022-12-29T21:25:55;5.05;;;2.63;;
76980;SDS011;65914;51.618;5.446;2022-12-29T21:28:21;3.60;;;1.92;;
76980;SDS011;65914;51.618;5.446;2022-12-29T21:30:48;2.30;;;2.10;;
76980;SDS011;65914;51.618;5.446;2022-12-29T21:33:18;12.88;;;3.83;;
76980;SDS011;65914;51.618;5.446;2022-12-29T21:37:44;4.25;;;2.70;;
76980;SDS011;65914;51.618;5.446;2022-12-29T21:40:09;5.07;;;3.00;;
76980;SDS011;65914;51.618;5.446;2022-12-29T21:42:35;4.60;;;2.30;;
76980;SDS011;65914;51.618;5.446;2022-12-29T21:45:00;4.00;;;3.35;;
76980;SDS011;65914;51.618;5.446;2022-12-29T21:47:44;2.80;;;2.53;;
76980;SDS011;65914;51.618;5.446;2022-12-29T21:50:28;4.63;;;3.28;;
76980;SDS011;65914;51.618;5.446;2022-12-29T21:52:57;4.20;;;2.40;;
76980;SDS011;65914;51.618;5.446;2022-12-29T21:55:23;8.20;;;2.83;;
76980;SDS011;65914;51.618;5.446;2022-12-29T21:57:48;3.72;;;1.63;;
76980;SDS011;65914;51.618;5.446;2022-12-29T22:00:32;4.97;;;2.83;;
76980;SDS011;65914;51.618;5.446;2022-12-29T22:03:16;2.60;;;2.30;;
76980;SDS011;65914;51.618;5.446;2022-12-29T22:05:59;4.70;;;1.73;;
76980;SDS011;65914;51.618;5.446;2022-12-29T22:08:43;4.00;;;2.60;;
76980;SDS011;65914;51.618;5.446;2022-12-29T22:11:27;3.10;;;2.80;;
76980;SDS011;65914;51.618;5.446;2022-12-29T22:14:11;2.35;;;2.13;;
76980;SDS011;65914;51.618;5.446;2022-12-29T22:16:37;2.67;;;2.47;;
76980;SDS011;65914;51.618;5.446;2022-12-29T22:19:02;5.50;;;2.40;;
76980;SDS011;65914;51.618;5.446;2022-12-29T22:21:28;3.28;;;1.55;;
76980;SDS011;65914;51.618;5.446;2022-12-29T22:23:53;3.67;;;2.45;;
76980;SDS011;65914;51.618;5.446;2022-12-29T22:26:19;2.38;;;2.00;;
76980;SDS011;65914;51.618;5.446;2022-12-29T22:28:44;2.58;;;2.05;;
76980;SDS011;65914;51.618;5.446;2022-12-29T22:31:23;3.05;;;2.72;;
76980;SDS011;65914;51.618;5.446;2022-12-29T22:33:57;3.90;;;2.65;;
76980;SDS011;65914;51.618;5.446;2022-12-29T22:36:25;2.38;;;2.15;;
76980;SDS011;65914;51.618;5.446;2022-12-29T22:38:51;3.90;;;2.15;;
76980;SDS011;65914;51.618;5.446;2022-12-29T22:41:17;3.03;;;2.30;;
76980;SDS011;65914;51.618;5.446;2022-12-29T22:43:43;2.95;;;2.15;;
76980;SDS011;65914;51.618;5.446;2022-12-29T22:46:08;5.05;;;1.88;;
76980;SDS011;65914;51.618;5.446;2022-12-29T22:48:34;1.63;;;1.52;;
76980;SDS011;65914;51.618;5.446;2022-12-29T22:51:00;4.15;;;2.33;;
76980;SDS011;65914;51.618;5.446;2022-12-29T22:53:26;5.07;;;2.38;;
76980;SDS011;65914;51.618;5.446;2022-12-29T22:56:04;2.33;;;2.03;;
76980;SDS011;65914;51.618;5.446;2022-12-29T23:02:07;1.98;;;1.67;;
76980;SDS011;65914;51.618;5.446;2022-12-29T23:05:25;2.97;;;2.28;;
76980;SDS011;65914;51.618;5.446;2022-12-29T23:08:13;2.83;;;1.95;;
76980;SDS011;65914;51.618;5.446;2022-12-29T23:14:04;3.30;;;1.75;;
76980;SDS011;65914;51.618;5.446;2022-12-29T23:19:44;3.03;;;1.80;;
76980;SDS011;65914;51.618;5.446;2022-12-29T23:22:32;3.40;;;1.80;;
76980;SDS011;65914;51.618;5.446;2022-12-29T23:25:16;2.53;;;1.92;;
76980;SDS011;65914;51.618;5.446;2022-12-29T23:28:11;1.80;;;1.55;;
76980;SDS011;65914;51.618;5.446;2022-12-29T23:30:41;4.13;;;1.98;;
76980;SDS011;65914;51.618;5.446;2022-12-29T23:33:27;1.90;;;1.67;;
76980;SDS011;65914;51.618;5.446;2022-12-29T23:36:11;1.45;;;1.35;;
76980;SDS011;65914;51.618;5.446;2022-12-29T23:38:57;11.07;;;1.73;;
76980;SDS011;65914;51.618;5.446;2022-12-29T23:44:18;2.20;;;2.00;;
76980;SDS011;65914;51.618;5.446;2022-12-29T23:46:57;1.50;;;1.40;;
76980;SDS011;65914;51.618;5.446;2022-12-29T23:49:31;2.22;;;2.00;;
76980;SDS011;65914;51.618;5.446;2022-12-29T23:52:23;2.72;;;1.70;;
76980;SDS011;65914;51.618;5.446;2022-12-29T23:55:07;2.38;;;1.50;;
